Time;durP1;ratioP1;P1;durP2;ratioP2;P2;SDS_P1;SDS_P2;PMS_P1;PMS_P2;Temp;Humidity;BMP_temperature;BMP_pressure;BME280_temperature;BME280_humidity;BME280_pressure;Samples;Min_cycle;Max_cycle;Signal;HPM_P1;HPM_P2
2022/10/02 00:01:47;;;;;;;;;3.00;2.00;;;;;17.51;60.39;101630.78;5058960;28;45432;-84
2022/10/02 00:04:21;;;;;;;;;7.25;2.00;;;;;17.49;60.37;101629.16;5059399;28;45439;-86
2022/10/02 00:06:48;;;;;;;;;5.00;2.00;;;;;17.48;60.81;101633.59;5042197;28;48173;-85
2022/10/02 00:09:29;;;;;;;;;4.75;2.75;;;;;17.46;61.01;101632.78;5059256;28;45696;-85
2022/10/02 00:11:57;;;;;;;;;2.75;2.00;;;;;17.45;62.02;101635.50;5059451;28;45368;-85
2022/10/02 00:14:24;;;;;;;;;5.50;2.50;;;;;17.42;62.64;101634.69;5077350;28;45437;-85
2022/10/02 00:16:53;;;;;;;;;5.00;2.00;;;;;17.43;62.56;101638.19;5058620;28;45615;-85
2022/10/02 00:19:19;;;;;;;;;6.00;2.50;;;;;17.39;62.82;101650.63;5058921;28;45333;-85
2022/10/02 00:21:59;;;;;;;;;2.50;2.00;;;;;17.38;63.19;101642.78;5077228;27;45700;-86
2022/10/02 00:24:36;;;;;;;;;5.00;2.75;;;;;17.36;63.70;101649.88;5077117;27;45344;-86
2022/10/02 00:27:26;;;;;;;;;2.50;2.25;;;;;17.34;63.63;101652.59;5058852;28;45569;-85
2022/10/02 00:29:54;;;;;;;;;2.50;2.00;;;;;17.35;63.55;101651.69;4958708;28;45776;-85
2022/10/02 00:32:28;;;;;;;;;3.75;2.00;;;;;17.35;63.84;101646.41;4958245;28;45572;-85
2022/10/02 00:35:31;;;;;;;;;3.25;2.25;;;;;17.41;63.77;101645.28;4974937;28;45474;-85
2022/10/02 00:38:04;;;;;;;;;4.25;2.00;;;;;17.44;64.18;101647.81;4974885;28;46725;-86
2022/10/02 00:40:32;;;;;;;;;7.00;2.00;;;;;17.42;64.12;101641.72;4974269;28;45408;-85
2022/10/02 00:43:24;;;;;;;;;3.00;2.00;;;;;17.43;64.31;101646.06;4974937;28;45533;-86
2022/10/02 00:46:20;;;;;;;;;1.75;1.00;;;;;17.47;64.24;101652.06;4954855;28;45710;-86
2022/10/02 00:49:16;;;;;;;;;2.00;2.00;;;;;17.50;64.13;101652.78;4955062;28;45549;-85
2022/10/02 00:52:18;;;;;;;;;3.25;2.25;;;;;17.49;64.02;101658.97;4954952;28;46334;-85
2022/10/02 00:54:53;;;;;;;;;2.00;2.00;;;;;17.49;64.17;101655.47;4955091;28;45423;-85
2022/10/02 00:57:28;;;;;;;;;5.25;2.25;;;;;17.51;64.42;101659.75;4939058;28;45361;-86
2022/10/02 01:00:21;;;;;;;;;5.00;2.75;;;;;17.54;64.80;101664.88;4954509;28;45520;-85
2022/10/02 01:02:56;;;;;;;;;2.75;2.75;;;;;17.55;64.61;101665.72;4952964;28;45724;-85
2022/10/02 01:05:24;;;;;;;;;3.00;1.00;;;;;17.52;65.33;101663.25;4955126;28;45436;-86
2022/10/02 01:07:52;;;;;;;;;4.50;2.00;;;;;17.48;66.08;101659.91;4989765;28;45693;-85
2022/10/02 01:10:18;;;;;;;;;3.00;2.00;;;;;17.45;66.07;101654.75;5013521;28;45626;-86
2022/10/02 01:12:44;;;;;;;;;3.00;3.00;;;;;17.46;66.71;101650.34;4997125;28;45312;-86
2022/10/02 01:15:14;;;;;;;;;3.75;2.50;;;;;17.46;66.50;101647.72;5013478;28;45260;-86
2022/10/02 01:17:50;;;;;;;;;;;;;;;;;;;;;
2022/10/02 01:20:31;;;;;;;;;4.00;2.50;;;;;17.37;67.94;101643.72;4997300;28;73817;-85
2022/10/02 01:23:17;;;;;;;;;2.25;2.25;;;;;17.32;68.46;101654.44;5017095;28;45672;-86
2022/10/02 01:25:45;;;;;;;;;6.00;1.50;;;;;17.23;69.17;101644.28;5056053;28;45361;-86
2022/10/02 01:28:11;;;;;;;;;2.00;2.00;;;;;17.19;70.54;101651.47;5037968;28;45375;-86
2022/10/02 01:30:39;;;;;;;;;4.50;2.25;;;;;17.15;70.66;101644.63;5055647;28;46926;-85
2022/10/02 01:33:04;;;;;;;;;2.50;2.50;;;;;17.08;71.83;101652.84;5042351;28;45628;-85
2022/10/02 01:35:32;;;;;;;;;3.00;3.00;;;;;16.99;72.24;101646.19;5075978;28;45326;-85
2022/10/02 01:38:02;;;;;;;;;2.25;2.00;;;;;16.94;72.05;101651.63;5058001;28;45373;-85
2022/10/02 01:40:30;;;;;;;;;1.00;1.00;;;;;16.94;72.06;101651.63;5057640;28;46560;-85
2022/10/02 01:43:00;;;;;;;;;3.00;2.50;;;;;16.95;72.14;101644.59;5075582;28;45878;-85
2022/10/02 01:45:35;;;;;;;;;7.00;2.00;;;;;16.98;71.98;101642.69;5057873;28;45470;-86
2022/10/02 01:48:12;;;;;;;;;4.00;2.25;;;;;17.00;72.35;101646.13;5057783;28;45444;-86
2022/10/02 01:51:21;;;;;;;;;3.75;3.75;;;;;17.00;72.46;101637.38;5040899;28;47213;-86
2022/10/02 01:53:52;;;;;;;;;4.00;2.00;;;;;17.00;72.29;101637.38;4995921;28;45750;-86
2022/10/02 01:56:22;;;;;;;;;2.00;2.00;;;;;17.03;72.55;101632.84;4980652;28;45449;-86
2022/10/02 01:58:53;;;;;;;;;3.00;2.00;;;;;17.07;72.07;101632.69;4980307;28;45442;-87
2022/10/02 02:01:29;;;;;;;;;3.50;2.00;;;;;17.13;72.24;101628.06;4976860;28;46503;-87
2022/10/02 02:04:13;;;;;;;;;2.75;1.75;;;;;17.18;71.97;101627.88;4977381;28;45426;-86
2022/10/02 02:07:03;;;;;;;;;4.00;2.00;;;;;17.19;72.43;101627.78;4977332;28;45406;-87
2022/10/02 02:09:33;;;;;;;;;2.00;2.00;;;;;17.19;72.28;101622.50;4977305;28;45337;-86
2022/10/02 02:12:07;;;;;;;;;3.50;1.25;;;;;17.17;72.28;101627.00;4960497;28;45481;-87
2022/10/02 02:14:35;;;;;;;;;4.00;2.00;;;;;17.19;72.29;101624.31;4977153;28;45779;-87
2022/10/02 02:17:29;;;;;;;;;4.75;1.50;;;;;17.21;72.47;101625.94;4961005;28;45357;-87
2022/10/02 02:20:01;;;;;;;;;4.25;4.00;;;;;17.23;72.40;101617.97;4938074;28;45709;-87
2022/10/02 02:22:33;;;;;;;;;3.75;3.00;;;;;17.26;72.33;101615.22;4937960;28;45689;-87
2022/10/02 02:25:06;;;;;;;;;1.00;1.00;;;;;17.29;72.17;101619.50;4937896;28;45734;-87
2022/10/02 02:27:39;;;;;;;;;3.25;1.00;;;;;17.31;71.83;101617.66;4980946;28;45430;-86
2022/10/02 02:30:10;;;;;;;;;2.00;2.00;;;;;17.29;73.27;101617.75;5016764;28;45597;-87
2022/10/02 02:32:39;;;;;;;;;3.75;2.00;;;;;17.26;72.85;101611.75;5016223;28;47028;-87
2022/10/02 02:35:16;;;;;;;;;2.75;2.25;;;;;17.23;73.48;101610.09;4999967;28;45271;-87
2022/10/02 02:37:43;;;;;;;;;2.50;1.75;;;;;17.20;74.38;101603.19;5016514;28;46501;-86
2022/10/02 02:40:14;;;;;;;;;1.00;1.00;;;;;17.18;73.94;101601.56;4999717;28;45553;-87
2022/10/02 02:42:47;;;;;;;;;1.00;1.00;;;;;17.20;74.17;101604.97;4999321;28;46003;-87
2022/10/02 02:45:19;;;;;;;;;1.75;1.25;;;;;17.22;73.92;101595.25;4999617;28;45437;-87
2022/10/02 02:47:51;;;;;;;;;1.50;0.50;;;;;17.21;74.81;101597.00;4999816;28;45373;-87
2022/10/02 02:50:22;;;;;;;;;0.75;0.75;;;;;17.18;74.58;101597.16;4999824;28;45636;-88
2022/10/02 02:52:53;;;;;;;;;1.75;1.00;;;;;17.17;74.80;101586.69;5016024;28;45411;-88
2022/10/02 02:55:22;;;;;;;;;1.75;1.75;;;;;17.16;75.04;101591.09;4982780;28;45421;-88
2022/10/02 02:57:55;;;;;;;;;2.25;2.25;;;;;17.18;74.83;101577.88;5074904;28;45277;-88
2022/10/02 03:00:22;;;;;;;;;1.00;1.00;;;;;17.23;74.39;101575.88;5077477;28;45505;-89
2022/10/02 03:02:49;;;;;;;;;2.00;1.50;;;;;17.29;73.99;101573.00;5060588;28;46169;-89
2022/10/02 03:05:17;;;;;;;;;1.50;1.50;;;;;17.37;73.73;101572.66;5060800;28;45350;-88
2022/10/02 03:07:49;;;;;;;;;2.75;1.00;;;;;17.39;74.33;101574.28;5060863;28;45412;-89
2022/10/02 03:10:20;;;;;;;;;1.50;1.00;;;;;17.40;74.11;101570.75;5043478;28;45547;-89
2022/10/02 03:12:57;;;;;;;;;7.50;2.00;;;;;17.40;75.30;101576.03;5060719;27;45508;-89
2022/10/02 03:15:37;;;;;;;;;0.50;0.50;;;;;17.36;74.70;101569.16;5078813;28;45579;-90
2022/10/02 03:18:22;;;;;;;;;1.25;1.00;;;;;17.32;74.97;101564.13;5060812;28;45420;-88
2022/10/02 03:20:59;;;;;;;;;0.50;0.50;;;;;17.30;75.05;101566.81;5043651;28;45372;-89
2022/10/02 03:23:30;;;;;;;;;2.50;1.00;;;;;17.30;75.17;101568.59;5079119;27;46093;-89
2022/10/02 03:26:15;;;;;;;;;3.75;2.00;;;;;17.31;75.31;101560.63;5044127;28;45250;-90
2022/10/02 03:28:45;;;;;;;;;2.00;2.00;;;;;17.33;75.16;101558.78;5044181;28;45360;-90
2022/10/02 03:31:13;;;;;;;;;2.25;1.00;;;;;17.35;75.20;101562.19;5044495;28;45357;-91
2022/10/02 03:33:39;;;;;;;;;1.00;1.00;;;;;17.36;75.10;101558.63;5040465;28;47190;-90
2022/10/02 03:36:04;;;;;;;;;1.00;1.00;;;;;17.39;75.26;101550.59;5023847;28;45516;-90
2022/10/02 03:38:30;;;;;;;;;1.00;1.00;;;;;17.41;75.22;101556.66;5040648;28;45309;-91
2022/10/02 03:40:58;;;;;;;;;1.00;1.00;;;;;17.42;75.83;101563.66;5040497;28;45429;-89
2022/10/02 03:43:27;;;;;;;;;1.00;1.00;;;;;17.44;75.49;101552.19;5040884;28;46512;-90
2022/10/02 03:45:52;;;;;;;;;0.25;0.25;;;;;17.46;75.59;101555.59;5040426;28;45402;-89
2022/10/02 03:48:18;;;;;;;;;2.00;1.00;;;;;17.46;75.97;101553.84;5040303;28;45431;-90
2022/10/02 03:50:44;;;;;;;;;0.50;0.50;;;;;17.45;75.91;101557.38;5040077;28;45483;-90
2022/10/02 03:53:15;;;;;;;;;1.00;0.00;;;;;17.50;76.09;101570.34;5036439;28;48188;-90
2022/10/02 03:55:54;;;;;;;;;1.00;1.00;;;;;17.52;75.64;101560.59;5036932;28;45930;-89
2022/10/02 03:58:20;;;;;;;;;1.00;1.00;;;;;17.50;76.53;101558.03;5036678;28;45400;-89
2022/10/02 04:01:30;;;;;;;;;0.00;0.00;;;;;17.49;75.90;101553.69;5053227;28;45416;-89
2022/10/02 04:04:04;;;;;;;;;0.00;0.00;;;;;17.50;76.37;101554.56;5035622;28;47404;-90
2022/10/02 04:06:52;;;;;;;;;0.50;0.50;;;;;17.49;76.60;101560.72;5035829;28;45702;-90
2022/10/02 04:09:26;;;;;;;;;0.00;0.00;;;;;17.50;76.68;101550.13;5035798;28;45455;-90
2022/10/02 04:11:58;;;;;;;;;0.00;0.00;;;;;17.53;76.64;101555.28;5019222;28;45516;-90
2022/10/02 04:14:35;;;;;;;;;0.00;0.00;;;;;17.54;76.61;101559.59;5035577;28;45801;-90
2022/10/02 04:17:03;;;;;;;;;0.00;0.00;;;;;17.53;77.28;101563.16;5035230;28;45632;-90
2022/10/02 04:19:37;;;;;;;;;0.00;0.00;;;;;17.53;77.21;101560.53;5035736;28;45379;-90
2022/10/02 04:22:23;;;;;;;;;0.00;0.00;;;;;17.53;77.54;101560.53;5018806;28;45367;-91
2022/10/02 04:25:04;;;;;;;;;0.00;0.00;;;;;17.52;77.47;101558.81;5035778;28;46804;-91
2022/10/02 04:27:44;;;;;;;;;0.50;0.00;;;;;17.52;78.07;101553.56;5035590;28;45373;-90
2022/10/02 04:30:11;;;;;;;;;0.00;0.00;;;;;17.52;77.21;101556.19;5018998;28;45468;-90
2022/10/02 04:32:37;;;;;;;;;0.00;0.00;;;;;17.52;77.63;101564.06;5020066;28;45851;-91
2022/10/02 04:35:11;;;;;;;;;0.00;0.00;;;;;17.52;77.46;101558.81;5022262;28;48222;-90
2022/10/02 04:37:58;;;;;;;;;0.00;0.00;;;;;17.54;77.60;101562.22;5055259;28;45847;-90
2022/10/02 04:40:23;;;;;;;;;0.00;0.00;;;;;17.55;77.34;101568.34;5057079;28;45346;-90
2022/10/02 04:43:08;;;;;;;;;0.00;0.00;;;;;17.54;77.82;101569.28;5056601;28;45356;-90
2022/10/02 04:45:52;;;;;;;;;0.00;0.00;;;;;17.53;77.41;101567.56;5039616;28;47524;-92
2022/10/02 04:48:35;;;;;;;;;0.00;0.00;;;;;17.53;78.08;101567.56;5056147;28;46373;-91
2022/10/02 04:51:17;;;;;;;;;0.00;0.00;;;;;17.53;78.22;101562.28;5056454;28;45415;-93
2022/10/02 04:53:56;;;;;;;;;0.00;0.00;;;;;17.54;77.73;101562.22;5056474;28;45421;-91
2022/10/02 04:56:42;;;;;;;;;0.00;0.00;;;;;17.53;77.64;101563.16;5056421;28;47490;-92
2022/10/02 04:59:26;;;;;;;;;0.00;0.00;;;;;17.55;77.80;101573.59;5057522;28;45729;-92
2022/10/02 05:02:09;;;;;;;;;0.00;0.00;;;;;17.58;77.31;101579.59;5039843;28;45441;-92
2022/10/02 05:04:44;;;;;;;;;0.00;0.00;;;;;17.62;77.45;101575.03;5057576;28;45363;-92
2022/10/02 05:07:31;;;;;;;;;1.00;0.00;;;;;17.64;77.63;101572.34;5057065;28;46665;-92
2022/10/02 05:10:21;;;;;;;;;0.00;0.00;;;;;17.62;77.03;101567.16;5057134;28;45682;-91
2022/10/02 05:12:46;;;;;;;;;0.00;0.00;;;;;17.59;77.74;101568.16;5056376;28;45333;-91
2022/10/02 05:15:24;;;;;;;;;0.00;0.00;;;;;17.57;77.78;101571.78;5057598;28;45313;-91
2022/10/02 05:18:08;;;;;;;;;0.00;0.00;;;;;17.55;77.33;101573.59;5057384;28;46179;-91
2022/10/02 05:20:42;;;;;;;;;0.00;0.00;;;;;17.55;77.60;101576.25;5039402;28;45424;-91
2022/10/02 05:23:24;;;;;;;;;0.00;0.00;;;;;17.52;77.66;101574.59;5056506;28;45312;-91
2022/10/02 05:26:15;;;;;;;;;0.00;0.00;;;;;17.51;77.65;101572.88;5039461;28;45451;-90
2022/10/02 05:28:56;;;;;;;;;0.00;0.00;;;;;17.52;77.41;101579.03;5054933;28;46328;-91
2022/10/02 05:31:27;;;;;;;;;0.00;0.00;;;;;17.49;77.61;101576.53;5056753;28;45356;-90
2022/10/02 05:34:28;;;;;;;;;0.00;0.00;;;;;17.46;77.30;101580.16;5055840;28;45382;-91
2022/10/02 05:37:18;;;;;;;;;0.00;0.00;;;;;17.44;77.17;101589.03;5055824;28;45474;-90
2022/10/02 05:39:57;;;;;;;;;0.00;0.00;;;;;17.38;77.47;101584.88;5056664;28;45779;-91
2022/10/02 05:42:30;;;;;;;;;0.25;0.00;;;;;17.36;77.49;101586.72;5055448;28;45753;-90
2022/10/02 05:45:03;;;;;;;;;0.00;0.00;;;;;17.34;77.78;101580.69;5055777;28;45415;-91
2022/10/02 05:47:31;;;;;;;;;0.00;0.00;;;;;17.32;77.89;101586.00;5056765;28;45493;-90
2022/10/02 05:50:14;;;;;;;;;0.00;0.00;;;;;17.31;77.51;101596.59;5055094;28;45378;-90
2022/10/02 05:53:07;;;;;;;;;0.00;0.00;;;;;17.30;77.29;101597.53;5057148;28;45612;-90
2022/10/02 05:55:51;;;;;;;;;0.00;0.00;;;;;17.29;77.26;101603.69;5059097;28;45301;-90
2022/10/02 05:58:24;;;;;;;;;0.00;0.00;;;;;17.30;77.78;101597.53;5076897;28;45504;-91
2022/10/02 06:01:11;;;;;;;;;0.00;0.00;;;;;17.32;77.68;101608.84;5058309;28;46445;-89
2022/10/02 06:03:55;;;;;;;;;1.25;0.00;;;;;17.33;77.89;101613.19;5058529;28;45424;-90
2022/10/02 06:06:37;;;;;;;;;0.00;0.00;;;;;17.33;77.32;101602.69;5058801;28;45419;-91
2022/10/02 06:09:25;;;;;;;;;0.00;0.00;;;;;17.32;77.12;101604.44;5058593;28;45402;-91
2022/10/02 06:11:56;;;;;;;;;0.00;0.00;;;;;17.32;77.56;101604.44;5041835;28;47134;-90
2022/10/02 06:14:45;;;;;;;;;0.00;0.00;;;;;17.34;77.19;101607.84;5058290;28;45314;-90
2022/10/02 06:17:19;;;;;;;;;0.00;0.00;;;;;17.36;77.11;101597.25;5058588;28;45388;-91
2022/10/02 06:19:59;;;;;;;;;0.00;0.00;;;;;17.37;77.43;101607.72;5075960;27;45474;-90
2022/10/02 06:22:29;;;;;;;;;0.00;0.00;;;;;17.35;77.41;101603.47;5058207;28;46512;-90
2022/10/02 06:24:58;;;;;;;;;0.00;0.00;;;;;17.36;77.19;101600.75;5058062;28;45337;-90
2022/10/02 06:27:51;;;;;;;;;0.00;0.00;;;;;17.38;76.90;101595.41;5041352;28;45305;-89
2022/10/02 06:30:17;;;;;;;;;0.00;0.00;;;;;17.42;76.93;101607.50;5065233;28;45254;-89
2022/10/02 06:32:49;;;;;;;;;0.00;0.00;;;;;17.42;77.34;101596.97;5057299;28;47469;-89
2022/10/02 06:35:18;;;;;;;;;1.00;0.00;;;;;17.42;76.79;101605.75;5058064;28;45418;-89
2022/10/02 06:37:49;;;;;;;;;0.50;0.00;;;;;17.45;76.79;101596.84;5058571;28;45518;-89
2022/10/02 06:40:33;;;;;;;;;0.00;0.00;;;;;17.48;77.21;101602.00;5078995;27;45519;-90
2022/10/02 06:43:29;;;;;;;;;0.00;0.00;;;;;17.50;76.39;101600.16;5079459;27;46371;-90
2022/10/02 06:46:12;;;;;;;;;0.00;0.00;;;;;17.53;76.63;101593.88;5061124;28;45372;-88
2022/10/02 06:48:57;;;;;;;;;0.00;0.00;;;;;17.56;76.90;101602.50;5078688;27;45396;-89
2022/10/02 06:51:28;;;;;;;;;0.00;0.00;;;;;17.56;76.80;101602.50;5061172;28;45477;-89
2022/10/02 06:54:41;;;;;;;;;0.00;0.00;;;;;17.59;76.38;101602.38;5078539;28;46331;-88
2022/10/02 06:57:38;;;;;;;;;1.00;0.00;;;;;17.63;76.41;101602.25;4996295;28;45803;-87
2022/10/02 07:00:14;;;;;;;;;1.00;0.00;;;;;17.61;76.62;101608.41;4956829;28;45412;-87
2022/10/02 07:03:01;;;;;;;;;0.00;0.00;;;;;17.64;76.75;101614.47;4937465;28;45598;-88
2022/10/02 07:05:54;;;;;;;;;0.00;0.00;;;;;17.66;76.78;101605.56;4937486;28;46428;-88
2022/10/02 07:08:39;;;;;;;;;3.00;0.00;;;;;17.73;76.21;101609.63;4937506;28;45701;-87
2022/10/02 07:11:17;;;;;;;;;0.00;0.00;;;;;17.80;76.49;101610.22;4921643;28;45431;-88
2022/10/02 07:14:11;;;;;;;;;0.00;0.00;;;;;17.83;76.25;101602.19;4921854;28;45689;-89
2022/10/02 07:17:00;;;;;;;;;0.00;0.00;;;;;17.88;75.82;101594.09;4921357;28;47266;-89
2022/10/02 07:19:52;;;;;;;;;0.00;0.00;;;;;17.89;75.44;101598.47;4937320;28;45574;-87
2022/10/02 07:22:29;;;;;;;;;0.00;0.00;;;;;17.93;75.37;101603.50;4930772;28;45462;-90
2022/10/02 07:24:57;;;;;;;;;0.00;0.00;;;;;17.97;74.87;101605.06;4937905;28;45391;-90
2022/10/02 07:27:43;;;;;;;;;0.00;0.00;;;;;17.98;75.00;101609.41;4937635;28;45533;-89
2022/10/02 07:30:11;;;;;;;;;0.00;0.00;;;;;18.01;74.89;101611.03;4928437;28;45371;-87
2022/10/02 07:33:05;;;;;;;;;0.00;0.00;;;;;18.05;74.25;101617.03;5015973;28;45426;-86
2022/10/02 07:35:38;;;;;;;;;0.00;0.00;;;;;18.02;74.50;101610.13;5035907;28;45413;-86
2022/10/02 07:38:23;;;;;;;;;0.00;0.00;;;;;18.01;73.95;101612.84;5059660;28;47316;-91
2022/10/02 07:41:18;;;;;;;;;0.25;0.00;;;;;18.01;74.44;101613.69;5078438;27;45679;-87
2022/10/02 07:43:49;;;;;;;;;1.00;0.00;;;;;18.04;74.51;101610.06;5078405;27;45392;-86
2022/10/02 07:46:37;;;;;;;;;0.00;0.00;;;;;18.04;73.94;101612.69;5077604;28;45236;-87
2022/10/02 07:49:06;;;;;;;;;0.00;0.00;;;;;18.03;73.93;101608.34;5077860;27;46943;-87
2022/10/02 07:51:49;;;;;;;;;1.00;0.00;;;;;18.07;73.46;101609.91;5042767;28;45896;-93
2022/10/02 07:54:35;;;;;;;;;0.00;0.00;;;;;18.13;73.77;101612.28;5079177;28;45471;-94
2022/10/02 07:57:28;;;;;;;;;0.00;0.00;;;;;18.16;73.15;101631.44;5062338;28;45360;-93
2022/10/02 08:00:02;;;;;;;;;0.00;0.00;;;;;18.18;72.58;101634.84;5069570;28;45407;-94
2022/10/02 08:03:20;;;;;;;;;0.00;0.00;;;;;18.21;73.04;101625.09;5081741;28;45403;-93
2022/10/02 08:05:48;;;;;;;;;0.00;0.00;;;;;18.31;72.81;101636.88;5066464;28;45579;-91
2022/10/02 08:08:27;;;;;;;;;0.00;0.00;;;;;18.43;72.17;101631.03;5060587;28;45400;-91
2022/10/02 08:11:03;;;;;;;;;3.00;0.00;;;;;18.51;72.10;101635.94;5059484;28;46117;-86
2022/10/02 08:13:52;;;;;;;;;0.00;0.00;;;;;18.60;71.53;101632.88;5059423;28;45379;-87
2022/10/02 08:16:21;;;;;;;;;0.75;0.75;;;;;18.72;71.72;101641.94;5059750;28;45470;-89
2022/10/02 08:18:52;;;;;;;;;0.00;0.00;;;;;18.87;71.10;101638.63;5060725;28;45506;-95
2022/10/02 08:21:19;;;;;;;;;0.00;0.00;;;;;18.92;70.75;101648.94;5064917;28;47033;-89
2022/10/02 08:23:55;;;;;;;;;1.00;1.00;;;;;18.88;70.36;101653.50;5066030;28;45293;-95
2022/10/02 08:26:27;;;;;;;;;1.00;1.00;;;;;18.87;70.57;101653.56;5062009;28;45489;-94
2022/10/02 08:29:15;;;;;;;;;2.00;0.25;;;;;18.88;70.33;101660.56;5060410;28;45403;-95
2022/10/02 08:31:41;;;;;;;;;2.00;0.25;;;;;18.90;70.09;101649.00;5060371;28;47330;-95
2022/10/02 08:34:17;;;;;;;;;2.25;1.00;;;;;18.99;70.45;101647.69;5046839;28;45333;-96
2022/10/02 08:37:00;;;;;;;;;1.00;0.00;;;;;19.20;70.32;101651.03;5040467;28;45396;-95
2022/10/02 08:39:42;;;;;;;;;0.00;0.00;;;;;19.41;68.78;101658.78;5058321;28;45250;-95
2022/10/02 08:42:28;;;;;;;;;0.25;0.00;;;;;19.53;68.88;101653.72;5040315;28;47488;-94
2022/10/02 08:45:33;;;;;;;;;1.00;1.00;;;;;19.62;67.59;101651.56;5041256;28;45962;-96
2022/10/02 08:48:38;;;;;;;;;1.00;0.75;;;;;19.76;68.30;101650.84;5058006;28;45384;-94
2022/10/02 08:51:42;;;;;;;;;0.00;0.00;;;;;19.95;68.57;101654.22;5056805;28;45379;-94
2022/10/02 08:54:49;;;;;;;;;0.75;0.75;;;;;20.04;67.23;101668.69;5057439;28;46529;-96
2022/10/02 08:57:17;;;;;;;;;1.00;0.25;;;;;19.96;67.32;101650.63;4980078;28;46019;-94
2022/10/02 09:00:08;;;;;;;;;0.25;0.00;;;;;20.08;66.67;101665.84;4979615;28;45232;-94
2022/10/02 09:02:52;;;;;;;;;0.50;0.25;;;;;20.11;66.61;101647.16;5016182;28;45525;-93
2022/10/02 09:05:24;;;;;;;;;0.00;0.00;;;;;20.21;66.34;101662.53;5015576;28;45419;-95
2022/10/02 09:08:06;;;;;;;;;2.00;0.00;;;;;20.23;66.96;101661.50;5015883;28;45716;-94
2022/10/02 09:10:54;;;;;;;;;0.50;0.50;;;;;20.25;66.19;101672.84;5015727;28;45428;-94
2022/10/02 09:13:42;;;;;;;;;1.00;1.00;;;;;20.21;66.42;101668.66;5016359;28;45444;-94
2022/10/02 09:16:11;;;;;;;;;4.25;1.00;;;;;20.18;66.61;101662.69;5015268;28;45481;-94
2022/10/02 09:19:10;;;;;;;;;3.00;0.00;;;;;20.23;66.24;101668.56;5015914;28;45614;-93
2022/10/02 09:21:49;;;;;;;;;0.00;0.00;;;;;20.26;66.29;101658.69;4999590;28;45558;-94
2022/10/02 09:24:51;;;;;;;;;1.75;1.00;;;;;20.37;66.47;101650.13;4999045;28;45637;-93
2022/10/02 09:27:35;;;;;;;;;0.00;0.00;;;;;20.56;66.00;101651.75;5014948;28;47107;-95
2022/10/02 09:30:08;;;;;;;;;1.75;0.75;;;;;20.80;64.98;101661.00;5017921;28;45748;-94
2022/10/02 09:33:03;;;;;;;;;1.50;0.25;;;;;20.94;63.78;101654.03;5059812;28;45428;-95
2022/10/02 09:36:10;;;;;;;;;0.25;0.25;;;;;20.91;64.51;101660.34;5060602;28;45709;-92
2022/10/02 09:38:41;;;;;;;;;0.00;0.00;;;;;20.90;64.51;101657.81;5077092;27;46120;-93
2022/10/02 09:41:12;;;;;;;;;0.00;0.00;;;;;20.91;64.37;101649.75;5077281;28;45277;-92
2022/10/02 09:43:50;;;;;;;;;4.00;0.00;;;;;20.94;64.22;101646.09;5077694;28;45450;-92
2022/10/02 09:46:29;;;;;;;;;0.00;0.00;;;;;21.01;63.90;101650.94;5042872;28;45577;-93
2022/10/02 09:49:30;;;;;;;;;1.75;0.00;;;;;21.14;64.36;101650.25;5062700;28;47110;-93
2022/10/02 09:52:11;;;;;;;;;0.00;0.00;;;;;21.31;63.23;101655.38;5059577;28;45653;-90
2022/10/02 09:55:02;;;;;;;;;0.00;0.00;;;;;21.46;62.14;101657.13;5059153;28;45438;-90
2022/10/02 09:57:50;;;;;;;;;0.00;0.00;;;;;21.58;62.52;101658.19;5076563;28;45291;-90
2022/10/02 10:00:42;;;;;;;;;0.00;0.00;;;;;21.68;61.79;101655.84;5076358;28;45584;-90
2022/10/02 10:03:38;;;;;;;;;1.00;0.50;;;;;21.79;61.83;101660.47;4994400;28;45351;-92
2022/10/02 10:06:25;;;;;;;;;0.00;0.00;;;;;21.90;60.97;101663.31;4994427;28;45413;-90
2022/10/02 10:09:02;;;;;;;;;0.25;0.00;;;;;21.98;60.93;101658.38;4994528;28;45513;-89
2022/10/02 10:11:46;;;;;;;;;1.00;0.00;;;;;22.02;60.74;101672.28;4994113;28;46599;-89
2022/10/02 10:14:36;;;;;;;;;0.00;0.00;;;;;22.14;60.65;101668.88;4979196;28;45449;-90
2022/10/02 10:17:27;;;;;;;;;0.00;0.00;;;;;22.38;59.90;101662.97;4997654;28;45620;-89
2022/10/02 10:20:05;;;;;;;;;0.00;0.00;;;;;22.56;59.33;101663.59;4997724;28;45414;-88
2022/10/02 10:22:53;;;;;;;;;0.00;0.00;;;;;22.65;57.74;101646.22;5000552;28;46197;-87
2022/10/02 10:25:56;;;;;;;;;0.00;0.00;;;;;22.71;57.94;101648.47;4998155;28;45411;-90
2022/10/02 10:28:21;;;;;;;;;0.25;0.25;;;;;22.85;58.22;101642.28;4981649;28;45361;-85
2022/10/02 10:31:08;;;;;;;;;0.67;0.00;;;;;23.03;56.69;101661.41;4997092;28;45509;-87
2022/10/02 10:34:02;;;;;;;;;0.00;0.00;;;;;23.08;56.50;101657.53;4996464;28;47243;-87
2022/10/02 10:39:29;;;;;;;;;0.00;0.00;;;;;23.19;56.26;101651.50;5003028;28;45389;-86
2022/10/02 10:42:44;;;;;;;;;0.00;0.00;;;;;23.23;54.72;101660.09;5058862;28;45254;-86
2022/10/02 10:45:28;;;;;;;;;0.00;0.00;;;;;23.02;56.17;101649.09;5041768;28;46676;-86
2022/10/02 10:48:22;;;;;;;;;0.00;0.00;;;;;22.67;56.44;101657.59;5058471;28;45662;-86
2022/10/02 10:51:13;;;;;;;;;0.00;0.00;;;;;22.41;57.48;101668.09;5058524;28;45336;-88
2022/10/02 10:54:08;;;;;;;;;0.50;0.00;;;;;22.17;58.01;101662.50;5041191;28;45356;-87
2022/10/02 10:56:45;;;;;;;;;0.00;0.00;;;;;22.07;58.19;101658.75;5040632;28;47451;-86
2022/10/02 10:59:41;;;;;;;;;0.00;0.00;;;;;22.06;58.50;101654.41;5040138;28;45808;-87
2022/10/02 11:02:15;;;;;;;;;0.00;0.00;;;;;22.04;57.99;101649.19;5073583;28;45406;-87
2022/10/02 11:05:00;;;;;;;;;0.00;0.00;;;;;22.03;57.57;101672.19;5078869;28;45402;-88
2022/10/02 11:07:49;;;;;;;;;0.00;0.00;;;;;21.97;57.98;101656.69;5060389;28;47308;-87
2022/10/02 11:10:40;;;;;;;;;1.25;0.00;;;;;22.05;57.70;101653.56;5060078;28;45984;-87
2022/10/02 11:13:17;;;;;;;;;0.25;0.25;;;;;22.15;57.66;101652.00;5060340;28;45546;-87
2022/10/02 11:16:01;;;;;;;;;0.00;0.00;;;;;22.16;57.94;101650.22;5060308;28;45529;-84
2022/10/02 11:18:38;;;;;;;;;0.00;0.00;;;;;22.11;58.18;101639.91;5078234;28;46601;-86
2022/10/02 11:21:24;;;;;;;;;0.00;0.00;;;;;22.05;58.15;101653.56;5078451;27;45243;-86
2022/10/02 11:24:22;;;;;;;;;0.00;0.00;;;;;21.92;58.19;101653.47;5085813;27;45419;-86
2022/10/02 11:26:53;;;;;;;;;1.50;0.00;;;;;21.76;58.51;101673.91;4975884;28;45584;-84
2022/10/02 11:29:32;;;;;;;;;0.00;0.00;;;;;21.60;58.64;101669.56;4958965;28;47409;-85
2022/10/02 11:32:00;;;;;;;;;0.00;0.00;;;;;21.42;58.80;101673.28;4960271;28;45727;-85
2022/10/02 11:35:20;;;;;;;;;1.75;0.00;;;;;21.24;59.29;101672.56;4959132;28;45598;-84
2022/10/02 11:38:07;;;;;;;;;2.00;0.00;;;;;21.17;59.41;101676.50;4920106;28;45479;-83
2022/10/02 11:40:43;;;;;;;;;0.50;0.50;;;;;21.14;60.12;101682.00;4918778;28;46271;-82
2022/10/02 11:43:43;;;;;;;;;0.50;0.00;;;;;21.06;62.43;101687.72;4917695;28;45659;-81
2022/10/02 11:46:20;;;;;;;;;2.00;0.00;;;;;20.82;63.31;101696.16;4918019;28;45432;-82
2022/10/02 11:49:25;;;;;;;;;0.00;0.00;;;;;20.57;65.48;101693.16;4914310;28;45635;-82
2022/10/02 11:52:03;;;;;;;;;1.00;1.00;;;;;20.39;67.80;101711.75;4900158;28;48151;-82
2022/10/02 11:55:01;;;;;;;;;1.00;1.00;;;;;20.17;68.19;101696.19;4917154;28;45635;-81
2022/10/02 11:57:33;;;;;;;;;0.00;0.00;;;;;20.12;68.91;101700.88;4912592;28;45481;-82
2022/10/02 12:00:09;;;;;;;;;0.75;0.75;;;;;20.08;69.99;101707.28;4917540;28;45396;-81
2022/10/02 12:02:40;;;;;;;;;1.00;0.00;;;;;20.05;69.76;101694.22;4922955;28;46459;-83
2022/10/02 12:05:07;;;;;;;;;2.00;0.25;;;;;20.18;70.01;101703.19;4943010;28;45335;-82
2022/10/02 12:07:51;;;;;;;;;0.00;0.00;;;;;20.33;70.27;101705.94;4973796;28;45926;-82
2022/10/02 12:10:22;;;;;;;;;0.00;0.00;;;;;20.38;69.07;101696.81;4975180;28;45781;-81
2022/10/02 12:13:27;;;;;;;;;2.00;0.00;;;;;20.45;68.82;101687.59;5039899;28;47608;-83
2022/10/02 12:16:15;;;;;;;;;2.00;1.00;;;;;20.52;68.11;101687.25;5055916;28;45395;-83
2022/10/02 12:19:18;;;;;;;;;0.00;0.00;;;;;20.68;67.75;101683.69;5049147;28;46408;-85
2022/10/02 12:28:10;;;;;;;;;0.00;0.00;;;;;21.18;65.23;101681.72;5076173;28;45406;-84
2022/10/02 12:31:19;;;;;;;;;1.00;0.00;;;;;21.14;64.91;101677.56;5059193;28;45422;-82
2022/10/02 12:33:51;;;;;;;;;0.25;0.00;;;;;21.23;65.53;101692.91;4978041;28;45419;-82
2022/10/02 12:36:40;;;;;;;;;0.00;0.00;;;;;21.44;65.30;101689.91;4977233;28;47515;-82